sensor_id;sensor_type;location;lat;lon;timestamp;P1;durP1;ratioP1;P2;durP2;ratioP2
10088;SDS011;51898;49.864;8.550;2022-07-23T00:02:16;8.70;;;7.47;;
10088;SDS011;51898;49.864;8.550;2022-07-23T00:05:18;7.43;;;6.30;;
10088;SDS011;51898;49.864;8.550;2022-07-23T00:08:20;7.70;;;6.90;;
10088;SDS011;51898;49.864;8.550;2022-07-23T00:11:21;8.20;;;7.33;;
10088;SDS011;51898;49.864;8.550;2022-07-23T00:14:23;7.53;;;6.80;;
10088;SDS011;51898;49.864;8.550;2022-07-23T00:17:25;8.70;;;7.80;;
10088;SDS011;51898;49.864;8.550;2022-07-23T00:20:26;8.03;;;7.33;;
10088;SDS011;51898;49.864;8.550;2022-07-23T00:23:28;11.20;;;7.27;;
10088;SDS011;51898;49.864;8.550;2022-07-23T00:26:31;10.47;;;8.33;;
10088;SDS011;51898;49.864;8.550;2022-07-23T00:29:33;8.70;;;7.10;;
10088;SDS011;51898;49.864;8.550;2022-07-23T00:32:48;7.60;;;6.90;;
10088;SDS011;51898;49.864;8.550;2022-07-23T00:35:58;8.50;;;6.40;;
10088;SDS011;51898;49.864;8.550;2022-07-23T00:39:00;9.30;;;7.43;;
10088;SDS011;51898;49.864;8.550;2022-07-23T00:42:02;9.93;;;7.43;;
10088;SDS011;51898;49.864;8.550;2022-07-23T00:45:04;9.13;;;7.67;;
10088;SDS011;51898;49.864;8.550;2022-07-23T00:48:06;8.13;;;6.97;;
10088;SDS011;51898;49.864;8.550;2022-07-23T00:51:08;8.00;;;6.93;;
10088;SDS011;51898;49.864;8.550;2022-07-23T00:54:10;8.10;;;7.30;;
10088;SDS011;51898;49.864;8.550;2022-07-23T00:57:11;7.90;;;7.10;;
10088;SDS011;51898;49.864;8.550;2022-07-23T01:00:14;9.40;;;6.97;;
10088;SDS011;51898;49.864;8.550;2022-07-23T01:03:17;9.20;;;7.67;;
10088;SDS011;51898;49.864;8.550;2022-07-23T01:06:18;8.67;;;7.50;;
10088;SDS011;51898;49.864;8.550;2022-07-23T01:09:20;8.40;;;6.80;;
10088;SDS011;51898;49.864;8.550;2022-07-23T01:12:22;8.07;;;7.27;;
10088;SDS011;51898;49.864;8.550;2022-07-23T01:15:23;9.13;;;7.60;;
10088;SDS011;51898;49.864;8.550;2022-07-23T01:18:25;7.93;;;7.23;;
10088;SDS011;51898;49.864;8.550;2022-07-23T01:21:27;9.50;;;8.00;;
10088;SDS011;51898;49.864;8.550;2022-07-23T01:24:29;11.27;;;8.10;;
10088;SDS011;51898;49.864;8.550;2022-07-23T01:27:31;8.33;;;7.43;;
10088;SDS011;51898;49.864;8.550;2022-07-23T01:30:32;8.40;;;7.47;;
10088;SDS011;51898;49.864;8.550;2022-07-23T01:33:34;10.60;;;8.93;;
10088;SDS011;51898;49.864;8.550;2022-07-23T01:36:36;11.13;;;8.80;;
10088;SDS011;51898;49.864;8.550;2022-07-23T01:39:38;9.10;;;8.20;;
10088;SDS011;51898;49.864;8.550;2022-07-23T01:42:40;8.37;;;7.40;;
10088;SDS011;51898;49.864;8.550;2022-07-23T01:45:42;9.77;;;8.20;;
10088;SDS011;51898;49.864;8.550;2022-07-23T01:48:45;8.63;;;7.57;;
10088;SDS011;51898;49.864;8.550;2022-07-23T01:51:47;8.53;;;7.73;;
10088;SDS011;51898;49.864;8.550;2022-07-23T01:55:01;9.67;;;8.43;;
10088;SDS011;51898;49.864;8.550;2022-07-23T01:58:03;9.50;;;6.80;;
10088;SDS011;51898;49.864;8.550;2022-07-23T02:01:05;8.53;;;7.70;;
10088;SDS011;51898;49.864;8.550;2022-07-23T02:04:06;9.73;;;8.37;;
10088;SDS011;51898;49.864;8.550;2022-07-23T02:07:08;8.67;;;7.87;;
10088;SDS011;51898;49.864;8.550;2022-07-23T02:10:09;8.40;;;7.60;;
10088;SDS011;51898;49.864;8.550;2022-07-23T02:13:11;8.27;;;7.47;;
10088;SDS011;51898;49.864;8.550;2022-07-23T02:16:19;8.60;;;7.80;;
10088;SDS011;51898;49.864;8.550;2022-07-23T02:19:20;11.60;;;7.90;;
10088;SDS011;51898;49.864;8.550;2022-07-23T02:22:22;9.03;;;7.80;;
10088;SDS011;51898;49.864;8.550;2022-07-23T02:25:24;10.27;;;8.27;;
10088;SDS011;51898;49.864;8.550;2022-07-23T02:28:25;8.40;;;7.60;;
10088;SDS011;51898;49.864;8.550;2022-07-23T02:31:28;8.57;;;7.37;;
10088;SDS011;51898;49.864;8.550;2022-07-23T02:34:30;10.87;;;7.83;;
10088;SDS011;51898;49.864;8.550;2022-07-23T02:37:32;8.93;;;8.03;;
10088;SDS011;51898;49.864;8.550;2022-07-23T02:40:34;9.73;;;8.43;;
10088;SDS011;51898;49.864;8.550;2022-07-23T02:43:36;9.90;;;8.47;;
10088;SDS011;51898;49.864;8.550;2022-07-23T02:46:37;12.27;;;7.70;;
10088;SDS011;51898;49.864;8.550;2022-07-23T02:49:39;10.50;;;8.80;;
10088;SDS011;51898;49.864;8.550;2022-07-23T02:52:41;11.97;;;8.53;;
10088;SDS011;51898;49.864;8.550;2022-07-23T02:55:43;10.10;;;9.10;;
10088;SDS011;51898;49.864;8.550;2022-07-23T02:58:44;14.53;;;8.60;;
10088;SDS011;51898;49.864;8.550;2022-07-23T03:01:46;9.70;;;8.53;;
10088;SDS011;51898;49.864;8.550;2022-07-23T03:04:48;9.90;;;8.33;;
10088;SDS011;51898;49.864;8.550;2022-07-23T03:07:51;9.47;;;8.50;;
10088;SDS011;51898;49.864;8.550;2022-07-23T03:10:52;9.50;;;8.50;;
10088;SDS011;51898;49.864;8.550;2022-07-23T03:13:54;9.27;;;7.87;;
10088;SDS011;51898;49.864;8.550;2022-07-23T03:16:57;9.23;;;8.03;;
10088;SDS011;51898;49.864;8.550;2022-07-23T03:20:00;9.67;;;8.60;;
10088;SDS011;51898;49.864;8.550;2022-07-23T03:23:02;9.90;;;8.30;;
10088;SDS011;51898;49.864;8.550;2022-07-23T03:26:04;8.80;;;7.90;;
10088;SDS011;51898;49.864;8.550;2022-07-23T03:29:06;12.10;;;8.97;;
10088;SDS011;51898;49.864;8.550;2022-07-23T03:32:07;9.83;;;8.63;;
10088;SDS011;51898;49.864;8.550;2022-07-23T03:35:09;10.20;;;8.70;;
10088;SDS011;51898;49.864;8.550;2022-07-23T03:38:11;12.03;;;8.57;;
10088;SDS011;51898;49.864;8.550;2022-07-23T03:41:13;9.80;;;8.70;;
10088;SDS011;51898;49.864;8.550;2022-07-23T03:44:15;11.77;;;8.47;;
10088;SDS011;51898;49.864;8.550;2022-07-23T03:47:18;14.43;;;9.83;;
10088;SDS011;51898;49.864;8.550;2022-07-23T03:50:23;10.63;;;9.23;;
10088;SDS011;51898;49.864;8.550;2022-07-23T03:53:24;14.67;;;10.20;;
10088;SDS011;51898;49.864;8.550;2022-07-23T03:56:26;10.20;;;8.60;;
10088;SDS011;51898;49.864;8.550;2022-07-23T03:59:28;9.70;;;8.70;;
10088;SDS011;51898;49.864;8.550;2022-07-23T04:02:29;9.67;;;8.20;;
10088;SDS011;51898;49.864;8.550;2022-07-23T04:05:31;9.93;;;8.10;;
10088;SDS011;51898;49.864;8.550;2022-07-23T04:08:32;13.30;;;8.80;;
10088;SDS011;51898;49.864;8.550;2022-07-23T04:11:34;9.03;;;8.13;;
10088;SDS011;51898;49.864;8.550;2022-07-23T04:14:36;11.60;;;8.40;;
10088;SDS011;51898;49.864;8.550;2022-07-23T04:17:37;8.20;;;7.33;;
10088;SDS011;51898;49.864;8.550;2022-07-23T04:20:39;9.83;;;8.83;;
10088;SDS011;51898;49.864;8.550;2022-07-23T04:23:41;9.60;;;8.60;;
10088;SDS011;51898;49.864;8.550;2022-07-23T04:26:44;10.50;;;9.10;;
10088;SDS011;51898;49.864;8.550;2022-07-23T04:29:46;10.47;;;9.37;;
10088;SDS011;51898;49.864;8.550;2022-07-23T04:32:48;10.43;;;9.43;;
10088;SDS011;51898;49.864;8.550;2022-07-23T04:35:50;10.47;;;9.37;;
10088;SDS011;51898;49.864;8.550;2022-07-23T04:38:51;12.17;;;9.63;;
10088;SDS011;51898;49.864;8.550;2022-07-23T04:41:53;10.27;;;9.10;;
10088;SDS011;51898;49.864;8.550;2022-07-23T04:44:55;12.40;;;9.07;;
10088;SDS011;51898;49.864;8.550;2022-07-23T04:47:56;10.83;;;9.20;;
10088;SDS011;51898;49.864;8.550;2022-07-23T04:50:58;10.33;;;9.10;;
10088;SDS011;51898;49.864;8.550;2022-07-23T04:54:00;10.10;;;9.10;;
10088;SDS011;51898;49.864;8.550;2022-07-23T04:57:01;10.20;;;9.07;;
10088;SDS011;51898;49.864;8.550;2022-07-23T05:00:04;9.80;;;8.80;;
10088;SDS011;51898;49.864;8.550;2022-07-23T05:03:07;12.40;;;9.17;;
10088;SDS011;51898;49.864;8.550;2022-07-23T05:06:08;9.80;;;8.60;;
10088;SDS011;51898;49.864;8.550;2022-07-23T05:09:10;8.97;;;8.10;;
10088;SDS011;51898;49.864;8.550;2022-07-23T05:12:12;12.97;;;9.33;;
10088;SDS011;51898;49.864;8.550;2022-07-23T05:15:13;9.47;;;8.27;;
10088;SDS011;51898;49.864;8.550;2022-07-23T05:18:15;9.43;;;8.50;;
10088;SDS011;51898;49.864;8.550;2022-07-23T05:21:17;12.43;;;8.50;;
10088;SDS011;51898;49.864;8.550;2022-07-23T05:24:18;8.77;;;7.87;;
10088;SDS011;51898;49.864;8.550;2022-07-23T05:27:20;9.20;;;8.27;;
10088;SDS011;51898;49.864;8.550;2022-07-23T05:30:22;10.13;;;8.23;;
10088;SDS011;51898;49.864;8.550;2022-07-23T05:33:23;12.53;;;8.77;;
10088;SDS011;51898;49.864;8.550;2022-07-23T05:36:25;9.97;;;8.57;;
10088;SDS011;51898;49.864;8.550;2022-07-23T05:39:27;11.20;;;7.80;;
10088;SDS011;51898;49.864;8.550;2022-07-23T05:42:29;11.53;;;8.60;;
10088;SDS011;51898;49.864;8.550;2022-07-23T05:45:31;10.40;;;8.73;;
10088;SDS011;51898;49.864;8.550;2022-07-23T05:48:33;10.30;;;9.17;;
10088;SDS011;51898;49.864;8.550;2022-07-23T05:51:34;9.37;;;8.47;;
10088;SDS011;51898;49.864;8.550;2022-07-23T05:54:36;9.30;;;8.40;;
10088;SDS011;51898;49.864;8.550;2022-07-23T05:57:38;9.33;;;8.20;;
10088;SDS011;51898;49.864;8.550;2022-07-23T06:00:40;11.50;;;8.83;;
10088;SDS011;51898;49.864;8.550;2022-07-23T06:03:42;10.20;;;8.57;;
10088;SDS011;51898;49.864;8.550;2022-07-23T06:06:43;12.10;;;8.87;;
10088;SDS011;51898;49.864;8.550;2022-07-23T06:09:45;9.33;;;8.30;;
10088;SDS011;51898;49.864;8.550;2022-07-23T06:12:48;10.00;;;8.97;;
10088;SDS011;51898;49.864;8.550;2022-07-23T06:15:49;9.80;;;8.80;;
10088;SDS011;51898;49.864;8.550;2022-07-23T06:18:51;11.83;;;8.57;;
10088;SDS011;51898;49.864;8.550;2022-07-23T06:21:53;9.33;;;8.33;;
10088;SDS011;51898;49.864;8.550;2022-07-23T06:24:55;9.47;;;8.57;;
10088;SDS011;51898;49.864;8.550;2022-07-23T06:27:56;12.33;;;10.00;;
10088;SDS011;51898;49.864;8.550;2022-07-23T06:30:58;10.47;;;9.37;;
10088;SDS011;51898;49.864;8.550;2022-07-23T06:33:59;11.87;;;10.67;;
10088;SDS011;51898;49.864;8.550;2022-07-23T06:37:01;9.97;;;8.97;;
10088;SDS011;51898;49.864;8.550;2022-07-23T06:40:03;10.27;;;8.70;;
10088;SDS011;51898;49.864;8.550;2022-07-23T06:43:06;11.90;;;9.03;;
10088;SDS011;51898;49.864;8.550;2022-07-23T06:46:08;9.37;;;8.37;;
10088;SDS011;51898;49.864;8.550;2022-07-23T06:49:10;9.63;;;8.63;;
10088;SDS011;51898;49.864;8.550;2022-07-23T06:52:11;10.90;;;8.50;;
10088;SDS011;51898;49.864;8.550;2022-07-23T06:55:13;10.60;;;8.40;;
10088;SDS011;51898;49.864;8.550;2022-07-23T06:58:15;9.50;;;8.60;;
10088;SDS011;51898;49.864;8.550;2022-07-23T07:01:16;11.07;;;8.73;;
10088;SDS011;51898;49.864;8.550;2022-07-23T07:04:18;11.00;;;7.80;;
10088;SDS011;51898;49.864;8.550;2022-07-23T07:07:20;11.33;;;9.47;;
10088;SDS011;51898;49.864;8.550;2022-07-23T07:10:22;9.60;;;8.50;;
10088;SDS011;51898;49.864;8.550;2022-07-23T07:13:24;9.07;;;8.17;;
10088;SDS011;51898;49.864;8.550;2022-07-23T07:16:25;8.80;;;8.00;;
10088;SDS011;51898;49.864;8.550;2022-07-23T07:19:33;11.30;;;8.60;;
10088;SDS011;51898;49.864;8.550;2022-07-23T07:22:37;9.13;;;8.13;;
10088;SDS011;51898;49.864;8.550;2022-07-23T07:25:39;11.97;;;9.27;;
10088;SDS011;51898;49.864;8.550;2022-07-23T07:28:40;9.80;;;8.50;;
10088;SDS011;51898;49.864;8.550;2022-07-23T07:31:42;9.43;;;8.37;;
10088;SDS011;51898;49.864;8.550;2022-07-23T07:34:44;9.27;;;8.30;;
10088;SDS011;51898;49.864;8.550;2022-07-23T07:37:45;10.00;;;9.00;;
10088;SDS011;51898;49.864;8.550;2022-07-23T07:40:47;9.30;;;8.50;;
10088;SDS011;51898;49.864;8.550;2022-07-23T07:43:49;9.60;;;8.70;;
10088;SDS011;51898;49.864;8.550;2022-07-23T07:46:51;9.60;;;8.70;;
10088;SDS011;51898;49.864;8.550;2022-07-23T07:49:54;9.90;;;8.87;;
10088;SDS011;51898;49.864;8.550;2022-07-23T07:52:55;9.53;;;8.53;;
10088;SDS011;51898;49.864;8.550;2022-07-23T07:55:57;10.93;;;8.93;;
10088;SDS011;51898;49.864;8.550;2022-07-23T07:58:59;12.20;;;8.07;;
10088;SDS011;51898;49.864;8.550;2022-07-23T08:02:02;10.97;;;8.70;;
10088;SDS011;51898;49.864;8.550;2022-07-23T08:05:04;9.77;;;8.83;;
10088;SDS011;51898;49.864;8.550;2022-07-23T08:08:05;9.87;;;8.87;;
10088;SDS011;51898;49.864;8.550;2022-07-23T08:11:07;9.50;;;8.70;;
10088;SDS011;51898;49.864;8.550;2022-07-23T08:14:09;11.37;;;8.70;;
10088;SDS011;51898;49.864;8.550;2022-07-23T08:17:12;9.80;;;8.80;;
10088;SDS011;51898;49.864;8.550;2022-07-23T08:20:16;11.03;;;8.53;;
10088;SDS011;51898;49.864;8.550;2022-07-23T08:23:23;10.33;;;9.20;;
10088;SDS011;51898;49.864;8.550;2022-07-23T08:26:30;10.63;;;9.20;;
10088;SDS011;51898;49.864;8.550;2022-07-23T08:29:32;10.57;;;8.90;;
10088;SDS011;51898;49.864;8.550;2022-07-23T08:32:33;8.50;;;7.80;;
10088;SDS011;51898;49.864;8.550;2022-07-23T08:35:48;9.80;;;9.00;;
10088;SDS011;51898;49.864;8.550;2022-07-23T08:38:56;9.63;;;8.07;;
10088;SDS011;51898;49.864;8.550;2022-07-23T08:41:58;9.10;;;8.20;;
10088;SDS011;51898;49.864;8.550;2022-07-23T08:44:59;10.30;;;8.57;;
10088;SDS011;51898;49.864;8.550;2022-07-23T08:48:01;10.50;;;9.03;;
10088;SDS011;51898;49.864;8.550;2022-07-23T08:51:06;9.60;;;8.70;;
10088;SDS011;51898;49.864;8.550;2022-07-23T08:54:08;9.20;;;8.30;;
10088;SDS011;51898;49.864;8.550;2022-07-23T08:57:10;9.90;;;9.00;;
10088;SDS011;51898;49.864;8.550;2022-07-23T09:00:12;8.90;;;8.20;;
10088;SDS011;51898;49.864;8.550;2022-07-23T09:03:21;9.37;;;8.53;;
10088;SDS011;51898;49.864;8.550;2022-07-23T09:06:24;9.30;;;7.73;;
10088;SDS011;51898;49.864;8.550;2022-07-23T09:09:26;8.83;;;8.00;;
10088;SDS011;51898;49.864;8.550;2022-07-23T09:12:31;9.73;;;8.77;;
10088;SDS011;51898;49.864;8.550;2022-07-23T09:15:32;9.83;;;8.90;;
10088;SDS011;51898;49.864;8.550;2022-07-23T09:18:40;10.20;;;9.20;;
10088;SDS011;51898;49.864;8.550;2022-07-23T09:21:46;10.20;;;9.30;;
10088;SDS011;51898;49.864;8.550;2022-07-23T09:28:10;9.73;;;8.73;;
10088;SDS011;51898;49.864;8.550;2022-07-23T09:31:12;10.83;;;9.50;;
10088;SDS011;51898;49.864;8.550;2022-07-23T09:34:18;10.77;;;9.77;;
10088;SDS011;51898;49.864;8.550;2022-07-23T09:37:24;12.03;;;9.43;;
10088;SDS011;51898;49.864;8.550;2022-07-23T09:40:26;10.60;;;8.67;;
10088;SDS011;51898;49.864;8.550;2022-07-23T09:43:28;9.33;;;8.50;;
10088;SDS011;51898;49.864;8.550;2022-07-23T09:46:35;9.93;;;9.03;;
10088;SDS011;51898;49.864;8.550;2022-07-23T09:49:37;14.00;;;9.13;;
10088;SDS011;51898;49.864;8.550;2022-07-23T09:52:43;10.33;;;9.33;;
10088;SDS011;51898;49.864;8.550;2022-07-23T09:55:49;9.17;;;8.37;;
10088;SDS011;51898;49.864;8.550;2022-07-23T09:58:54;10.00;;;9.10;;
10088;SDS011;51898;49.864;8.550;2022-07-23T10:02:24;10.60;;;9.50;;
10088;SDS011;51898;49.864;8.550;2022-07-23T10:05:28;10.40;;;9.50;;
10088;SDS011;51898;49.864;8.550;2022-07-23T10:08:31;9.90;;;9.00;;
10088;SDS011;51898;49.864;8.550;2022-07-23T10:11:33;9.70;;;8.80;;
10088;SDS011;51898;49.864;8.550;2022-07-23T10:14:36;11.13;;;9.00;;
10088;SDS011;51898;49.864;8.550;2022-07-23T10:17:39;10.50;;;8.53;;
10088;SDS011;51898;49.864;8.550;2022-07-23T10:20:41;9.77;;;8.97;;
10088;SDS011;51898;49.864;8.550;2022-07-23T10:23:45;9.93;;;9.03;;
10088;SDS011;51898;49.864;8.550;2022-07-23T10:30:28;9.87;;;9.00;;
10088;SDS011;51898;49.864;8.550;2022-07-23T10:37:14;10.60;;;9.70;;
10088;SDS011;51898;49.864;8.550;2022-07-23T10:40:28;10.80;;;9.90;;
10088;SDS011;51898;49.864;8.550;2022-07-23T10:43:32;9.83;;;8.83;;
10088;SDS011;51898;49.864;8.550;2022-07-23T10:46:34;9.63;;;8.80;;
10088;SDS011;51898;49.864;8.550;2022-07-23T10:50:18;10.37;;;9.47;;
10088;SDS011;51898;49.864;8.550;2022-07-23T10:53:25;11.10;;;9.97;;
10088;SDS011;51898;49.864;8.550;2022-07-23T11:03:29;11.23;;;10.33;;
10088;SDS011;51898;49.864;8.550;2022-07-23T11:09:50;11.60;;;10.60;;
10088;SDS011;51898;49.864;8.550;2022-07-23T11:12:52;11.13;;;10.13;;
10088;SDS011;51898;49.864;8.550;2022-07-23T11:19:03;12.53;;;10.00;;
10088;SDS011;51898;49.864;8.550;2022-07-23T11:22:06;11.33;;;10.33;;
10088;SDS011;51898;49.864;8.550;2022-07-23T11:25:08;10.50;;;9.70;;
10088;SDS011;51898;49.864;8.550;2022-07-23T11:28:12;10.90;;;9.90;;
10088;SDS011;51898;49.864;8.550;2022-07-23T11:31:19;10.33;;;9.40;;
10088;SDS011;51898;49.864;8.550;2022-07-23T11:34:30;11.40;;;10.30;;
10088;SDS011;51898;49.864;8.550;2022-07-23T11:40:39;11.07;;;10.00;;
10088;SDS011;51898;49.864;8.550;2022-07-23T11:43:41;11.47;;;10.30;;
10088;SDS011;51898;49.864;8.550;2022-07-23T11:46:54;10.90;;;9.90;;
10088;SDS011;51898;49.864;8.550;2022-07-23T11:50:00;10.80;;;9.90;;
10088;SDS011;51898;49.864;8.550;2022-07-23T11:53:04;11.23;;;10.23;;
10088;SDS011;51898;49.864;8.550;2022-07-23T11:56:10;11.20;;;10.30;;
10088;SDS011;51898;49.864;8.550;2022-07-23T11:59:12;11.00;;;10.00;;
10088;SDS011;51898;49.864;8.550;2022-07-23T12:02:14;10.97;;;9.83;;
10088;SDS011;51898;49.864;8.550;2022-07-23T12:05:17;10.85;;;9.95;;
10088;SDS011;51898;49.864;8.550;2022-07-23T12:08:20;10.30;;;9.45;;
10088;SDS011;51898;49.864;8.550;2022-07-23T12:11:22;10.30;;;9.50;;
10088;SDS011;51898;49.864;8.550;2022-07-23T12:14:23;9.73;;;8.90;;
10088;SDS011;51898;49.864;8.550;2022-07-23T12:17:29;10.30;;;9.38;;
10088;SDS011;51898;49.864;8.550;2022-07-23T12:20:33;10.35;;;9.40;;
10088;SDS011;51898;49.864;8.550;2022-07-23T12:23:40;10.60;;;9.57;;
10088;SDS011;51898;49.864;8.550;2022-07-23T12:27:07;10.00;;;9.10;;
10088;SDS011;51898;49.864;8.550;2022-07-23T12:33:32;9.68;;;8.95;;
10088;SDS011;51898;49.864;8.550;2022-07-23T12:36:36;10.13;;;9.32;;
10088;SDS011;51898;49.864;8.550;2022-07-23T12:39:42;10.40;;;9.50;;
10088;SDS011;51898;49.864;8.550;2022-07-23T12:42:44;10.10;;;9.20;;
10088;SDS011;51898;49.864;8.550;2022-07-23T12:48:53;10.15;;;9.25;;
10088;SDS011;51898;49.864;8.550;2022-07-23T12:51:56;10.50;;;9.70;;
10088;SDS011;51898;49.864;8.550;2022-07-23T12:54:58;9.90;;;9.00;;
10088;SDS011;51898;49.864;8.550;2022-07-23T12:58:03;10.43;;;8.55;;
10088;SDS011;51898;49.864;8.550;2022-07-23T13:01:07;9.65;;;8.95;;
10088;SDS011;51898;49.864;8.550;2022-07-23T13:07:20;10.13;;;9.13;;
10088;SDS011;51898;49.864;8.550;2022-07-23T13:10:23;9.68;;;8.98;;
10088;SDS011;51898;49.864;8.550;2022-07-23T13:13:26;8.48;;;7.78;;
10088;SDS011;51898;49.864;8.550;2022-07-23T13:16:30;10.00;;;9.30;;
10088;SDS011;51898;49.864;8.550;2022-07-23T13:19:34;9.88;;;9.05;;
10088;SDS011;51898;49.864;8.550;2022-07-23T13:22:35;9.73;;;8.93;;
10088;SDS011;51898;49.864;8.550;2022-07-23T13:25:37;10.05;;;9.02;;
10088;SDS011;51898;49.864;8.550;2022-07-23T13:28:39;10.35;;;9.45;;
10088;SDS011;51898;49.864;8.550;2022-07-23T13:31:41;10.13;;;9.23;;
10088;SDS011;51898;49.864;8.550;2022-07-23T13:34:44;10.10;;;9.13;;
10088;SDS011;51898;49.864;8.550;2022-07-23T13:37:46;9.88;;;9.07;;
10088;SDS011;51898;49.864;8.550;2022-07-23T13:40:48;9.95;;;9.05;;
10088;SDS011;51898;49.864;8.550;2022-07-23T13:43:51;10.32;;;9.43;;
10088;SDS011;51898;49.864;8.550;2022-07-23T13:46:52;9.98;;;9.27;;
10088;SDS011;51898;49.864;8.550;2022-07-23T13:49:54;9.90;;;9.10;;
10088;SDS011;51898;49.864;8.550;2022-07-23T13:52:56;10.60;;;9.60;;
10088;SDS011;51898;49.864;8.550;2022-07-23T13:56:01;9.90;;;9.13;;
10088;SDS011;51898;49.864;8.550;2022-07-23T13:59:03;10.10;;;9.40;;
10088;SDS011;51898;49.864;8.550;2022-07-23T14:02:07;10.35;;;9.13;;
10088;SDS011;51898;49.864;8.550;2022-07-23T14:05:28;10.63;;;9.77;;
10088;SDS011;51898;49.864;8.550;2022-07-23T14:08:31;10.00;;;9.20;;
10088;SDS011;51898;49.864;8.550;2022-07-23T14:11:33;9.65;;;8.80;;
10088;SDS011;51898;49.864;8.550;2022-07-23T14:14:34;8.73;;;8.13;;
10088;SDS011;51898;49.864;8.550;2022-07-23T14:17:38;11.70;;;9.00;;
10088;SDS011;51898;49.864;8.550;2022-07-23T14:20:41;9.30;;;8.35;;
10088;SDS011;51898;49.864;8.550;2022-07-23T14:23:42;9.02;;;8.32;;
10088;SDS011;51898;49.864;8.550;2022-07-23T14:26:44;9.32;;;8.50;;
10088;SDS011;51898;49.864;8.550;2022-07-23T14:29:47;9.27;;;8.65;;
10088;SDS011;51898;49.864;8.550;2022-07-23T14:32:49;9.35;;;8.38;;
10088;SDS011;51898;49.864;8.550;2022-07-23T14:35:51;10.02;;;9.23;;
10088;SDS011;51898;49.864;8.550;2022-07-23T14:38:53;9.38;;;8.65;;
10088;SDS011;51898;49.864;8.550;2022-07-23T14:41:57;8.20;;;7.60;;
10088;SDS011;51898;49.864;8.550;2022-07-23T14:44:59;8.65;;;7.95;;
10088;SDS011;51898;49.864;8.550;2022-07-23T14:48:10;8.98;;;8.18;;
10088;SDS011;51898;49.864;8.550;2022-07-23T14:51:11;9.13;;;8.52;;
10088;SDS011;51898;49.864;8.550;2022-07-23T14:54:13;9.30;;;8.60;;
10088;SDS011;51898;49.864;8.550;2022-07-23T14:57:15;9.02;;;8.15;;
10088;SDS011;51898;49.864;8.550;2022-07-23T15:00:17;9.02;;;8.32;;
10088;SDS011;51898;49.864;8.550;2022-07-23T15:03:24;10.98;;;8.63;;
10088;SDS011;51898;49.864;8.550;2022-07-23T15:06:40;9.38;;;8.60;;
10088;SDS011;51898;49.864;8.550;2022-07-23T15:09:43;9.25;;;8.43;;
10088;SDS011;51898;49.864;8.550;2022-07-23T15:12:45;9.02;;;8.23;;
10088;SDS011;51898;49.864;8.550;2022-07-23T15:15:47;9.35;;;8.63;;
10088;SDS011;51898;49.864;8.550;2022-07-23T15:18:56;9.80;;;8.90;;
10088;SDS011;51898;49.864;8.550;2022-07-23T15:21:58;10.13;;;8.43;;
10088;SDS011;51898;49.864;8.550;2022-07-23T15:25:02;9.43;;;8.65;;
10088;SDS011;51898;49.864;8.550;2022-07-23T15:28:05;9.18;;;8.48;;
10088;SDS011;51898;49.864;8.550;2022-07-23T15:31:09;10.05;;;9.35;;
10088;SDS011;51898;49.864;8.550;2022-07-23T15:34:11;9.88;;;9.18;;
10088;SDS011;51898;49.864;8.550;2022-07-23T15:37:13;10.27;;;9.30;;
10088;SDS011;51898;49.864;8.550;2022-07-23T15:40:15;9.65;;;8.98;;
10088;SDS011;51898;49.864;8.550;2022-07-23T15:43:19;9.88;;;8.98;;
10088;SDS011;51898;49.864;8.550;2022-07-23T15:46:21;10.32;;;9.15;;
10088;SDS011;51898;49.864;8.550;2022-07-23T15:49:27;9.40;;;8.60;;
10088;SDS011;51898;49.864;8.550;2022-07-23T15:52:31;9.68;;;8.98;;
10088;SDS011;51898;49.864;8.550;2022-07-23T15:55:34;9.57;;;8.88;;
10088;SDS011;51898;49.864;8.550;2022-07-23T15:58:37;9.38;;;8.57;;
10088;SDS011;51898;49.864;8.550;2022-07-23T16:01:39;10.68;;;9.68;;
10088;SDS011;51898;49.864;8.550;2022-07-23T16:04:41;10.50;;;9.70;;
10088;SDS011;51898;49.864;8.550;2022-07-23T16:07:43;10.20;;;9.35;;
10088;SDS011;51898;49.864;8.550;2022-07-23T16:10:45;11.32;;;9.80;;
10088;SDS011;51898;49.864;8.550;2022-07-23T16:13:46;9.80;;;9.00;;
10088;SDS011;51898;49.864;8.550;2022-07-23T16:16:48;11.05;;;10.15;;
10088;SDS011;51898;49.864;8.550;2022-07-23T16:19:50;9.35;;;8.60;;
10088;SDS011;51898;49.864;8.550;2022-07-23T16:22:51;10.07;;;9.35;;
10088;SDS011;51898;49.864;8.550;2022-07-23T16:25:53;9.38;;;8.73;;
10088;SDS011;51898;49.864;8.550;2022-07-23T16:28:54;9.70;;;8.90;;
10088;SDS011;51898;49.864;8.550;2022-07-23T16:31:56;10.27;;;9.40;;
10088;SDS011;51898;49.864;8.550;2022-07-23T16:34:58;9.93;;;9.23;;
10088;SDS011;51898;49.864;8.550;2022-07-23T16:38:00;9.30;;;8.70;;
10088;SDS011;51898;49.864;8.550;2022-07-23T16:41:03;9.35;;;8.57;;
10088;SDS011;51898;49.864;8.550;2022-07-23T16:44:06;10.48;;;9.48;;
10088;SDS011;51898;49.864;8.550;2022-07-23T16:47:08;11.50;;;9.70;;
10088;SDS011;51898;49.864;8.550;2022-07-23T16:50:10;9.52;;;8.73;;
10088;SDS011;51898;49.864;8.550;2022-07-23T16:53:12;8.98;;;8.27;;
10088;SDS011;51898;49.864;8.550;2022-07-23T16:56:13;9.35;;;8.52;;
10088;SDS011;51898;49.864;8.550;2022-07-23T16:59:15;9.77;;;8.80;;
10088;SDS011;51898;49.864;8.550;2022-07-23T17:02:17;8.55;;;7.95;;
10088;SDS011;51898;49.864;8.550;2022-07-23T17:05:18;8.98;;;8.10;;
10088;SDS011;51898;49.864;8.550;2022-07-23T17:08:20;9.00;;;8.30;;
10088;SDS011;51898;49.864;8.550;2022-07-23T17:11:22;9.25;;;8.55;;
10088;SDS011;51898;49.864;8.550;2022-07-23T17:14:23;9.20;;;8.50;;
10088;SDS011;51898;49.864;8.550;2022-07-23T17:17:25;9.50;;;8.48;;
10088;SDS011;51898;49.864;8.550;2022-07-23T17:20:27;8.85;;;8.07;;
10088;SDS011;51898;49.864;8.550;2022-07-23T17:23:28;8.48;;;7.88;;
10088;SDS011;51898;49.864;8.550;2022-07-23T17:26:30;8.15;;;7.40;;
10088;SDS011;51898;49.864;8.550;2022-07-23T17:29:35;8.13;;;7.45;;
10088;SDS011;51898;49.864;8.550;2022-07-23T17:32:37;8.07;;;7.40;;
10088;SDS011;51898;49.864;8.550;2022-07-23T17:35:39;8.38;;;7.75;;
10088;SDS011;51898;49.864;8.550;2022-07-23T17:38:41;7.97;;;7.40;;
10088;SDS011;51898;49.864;8.550;2022-07-23T17:41:43;7.90;;;7.30;;
10088;SDS011;51898;49.864;8.550;2022-07-23T17:44:48;7.90;;;7.30;;
10088;SDS011;51898;49.864;8.550;2022-07-23T17:47:50;8.13;;;7.43;;
10088;SDS011;51898;49.864;8.550;2022-07-23T17:50:52;6.90;;;6.40;;
10088;SDS011;51898;49.864;8.550;2022-07-23T17:53:55;7.38;;;6.80;;
10088;SDS011;51898;49.864;8.550;2022-07-23T17:56:58;8.45;;;7.85;;
10088;SDS011;51898;49.864;8.550;2022-07-23T18:00:07;7.68;;;7.07;;
10088;SDS011;51898;49.864;8.550;2022-07-23T18:03:11;7.15;;;6.55;;
10088;SDS011;51898;49.864;8.550;2022-07-23T18:06:13;8.03;;;7.23;;
10088;SDS011;51898;49.864;8.550;2022-07-23T18:09:14;8.45;;;7.57;;
10088;SDS011;51898;49.864;8.550;2022-07-23T18:12:16;7.75;;;7.15;;
10088;SDS011;51898;49.864;8.550;2022-07-23T18:15:18;7.30;;;6.70;;
10088;SDS011;51898;49.864;8.550;2022-07-23T18:18:20;7.80;;;7.00;;
10088;SDS011;51898;49.864;8.550;2022-07-23T18:21:21;7.80;;;7.20;;
10088;SDS011;51898;49.864;8.550;2022-07-23T18:24:23;8.00;;;7.30;;
10088;SDS011;51898;49.864;8.550;2022-07-23T18:27:25;10.23;;;6.77;;
10088;SDS011;51898;49.864;8.550;2022-07-23T18:30:28;7.53;;;6.83;;
10088;SDS011;51898;49.864;8.550;2022-07-23T18:33:29;7.13;;;6.43;;
10088;SDS011;51898;49.864;8.550;2022-07-23T18:36:31;7.83;;;6.50;;
10088;SDS011;51898;49.864;8.550;2022-07-23T18:39:34;7.10;;;6.50;;
10088;SDS011;51898;49.864;8.550;2022-07-23T18:42:36;7.70;;;7.00;;
10088;SDS011;51898;49.864;8.550;2022-07-23T18:45:37;6.93;;;6.33;;
10088;SDS011;51898;49.864;8.550;2022-07-23T18:48:39;6.97;;;6.37;;
10088;SDS011;51898;49.864;8.550;2022-07-23T18:51:41;6.40;;;5.90;;